^^
Saratoga-Weather Station Historical Data
Daily Summary for January 20, 2021 Units:  Both    English   Metric
Daily Weekly Monthly Yearly Custom
  High: Low: Average:
Temperature: 60.6 °F /  15.9 °C 38.5 °F /  3.6 °C 47.1 °F /  8.4 °C
Dew Point: 48.4 °F /  9.1 °C 37.6 °F /  3.1 °C 42.6 °F /  5.9 °C
Humidity: 98% 59% 86%
Wind Speed: 10.1mph /  16.3km/h - 1mph /  1.6km/h
Wind Gust: 12mph /  19.3km/h - -
Wind- - ESE
Pressure: 30 in /  1016.3 hPa 29.9 in /  1012.9 hPa -
Precipitation: 0 in /  0.0 mm    
Historical Graphs
 
 
Tabular Data for January 20, 2021
Time Temperature Dew Point Pressure Wind Wind Speed Wind Gust Humidity Rainfall Rate (Hourly) solar
00:03 43.5 °F /  6.4 °C 42.3 °F /  5.7 °C 30in /  1015.9hPa Calm     95% 0in /  0.0mm 0 W/m2
00:08 43.3 °F /  6.3 °C 42.1 °F /  5.6 °C 30in /  1016.3hPa Calm     95% 0in /  0.0mm 0 W/m2
00:13 43.2 °F /  6.2 °C 41.9 °F /  5.5 °C 30in /  1015.9hPa Calm     95% 0in /  0.0mm 0 W/m2
00:18 43 °F /  6.1 °C 41.7 °F /  5.4 °C 30in /  1015.9hPa Calm     95% 0in /  0.0mm 0 W/m2
00:23 42.8 °F /  6 °C 41.5 °F /  5.3 °C 30in /  1015.9hPa Calm     95% 0in /  0.0mm 0 W/m2
00:28 42.6 °F /  5.9 °C 41.4 °F /  5.2 °C 30in /  1015.9hPa Calm     95% 0in /  0.0mm 0 W/m2
00:33 42.4 °F /  5.8 °C 41.2 °F /  5.1 °C 30in /  1015.9hPa Calm     95% 0in /  0.0mm 0 W/m2
00:38 42.4 °F /  5.8 °C 41.2 °F /  5.1 °C 30in /  1016.3hPa Calm     95% 0in /  0.0mm 0 W/m2
00:43 42.4 °F /  5.8 °C 41.2 °F /  5.1 °C 30in /  1016.3hPa Calm     95% 0in /  0.0mm 0 W/m2
00:48 42.3 °F /  5.7 °C 41 °F /  5 °C 30in /  1016.3hPa Calm     95% 0in /  0.0mm 0 W/m2
00:53 42.3 °F /  5.7 °C 41 °F /  5 °C 30in /  1015.9hPa Calm     95% 0in /  0.0mm 0 W/m2
00:58 42.1 °F /  5.6 °C 40.8 °F /  4.9 °C 30in /  1015.9hPa Calm     95% 0in /  0.0mm 0 W/m2
01:03 42.1 °F /  5.6 °C 40.8 °F /  4.9 °C 30in /  1015.9hPa Calm     95% 0in /  0.0mm 0 W/m2
01:08 42.1 °F /  5.6 °C 40.8 °F /  4.9 °C 30in /  1015.9hPa Calm     95% 0in /  0.0mm 0 W/m2
01:13 41.9 °F /  5.5 °C 40.8 °F /  4.9 °C 30in /  1015.9hPa Calm     96% 0in /  0.0mm 0 W/m2
01:18 41.9 °F /  5.5 °C 40.8 °F /  4.9 °C 30in /  1015.9hPa Calm     96% 0in /  0.0mm 0 W/m2
01:23 42.1 °F /  5.6 °C 41 °F /  5 °C 30in /  1015.9hPa Calm     96% 0in /  0.0mm 0 W/m2
01:28 41.9 °F /  5.5 °C 40.8 °F /  4.9 °C 30in /  1015.9hPa Calm     96% 0in /  0.0mm 0 W/m2
01:33 41.9 °F /  5.5 °C 40.8 °F /  4.9 °C 30in /  1015.9hPa Calm     96% 0in /  0.0mm 0 W/m2
01:38 41.9 °F /  5.5 °C 40.8 °F /  4.9 °C 30in /  1015.9hPa Calm     96% 0in /  0.0mm 0 W/m2
01:43 41.7 °F /  5.4 °C 40.6 °F /  4.8 °C 30in /  1015.9hPa Calm     96% 0in /  0.0mm 0 W/m2
01:48 41.7 °F /  5.4 °C 40.6 °F /  4.8 °C 30in /  1015.6hPa Calm     96% 0in /  0.0mm 0 W/m2
01:53 41.7 °F /  5.4 °C 40.6 °F /  4.8 °C 30in /  1015.9hPa Calm     96% 0in /  0.0mm 0 W/m2
01:58 41.7 °F /  5.4 °C 40.6 °F /  4.8 °C 30in /  1015.9hPa Calm     96% 0in /  0.0mm 0 W/m2
02:03 41.7 °F /  5.4 °C 40.6 °F /  4.8 °C 30in /  1015.9hPa Calm     96% 0in /  0.0mm 0 W/m2
02:08 41.7 °F /  5.4 °C 40.6 °F /  4.8 °C 30in /  1015.9hPa Calm     96% 0in /  0.0mm 0 W/m2
02:13 41.5 °F /  5.3 °C 40.5 °F /  4.7 °C 30in /  1015.9hPa Calm     96% 0in /  0.0mm 0 W/m2
02:18 41.5 °F /  5.3 °C 40.5 °F /  4.7 °C 30in /  1015.9hPa Calm     96% 0in /  0.0mm 0 W/m2
02:23 41.5 °F /  5.3 °C 40.5 °F /  4.7 °C 30in /  1015.9hPa Calm     96% 0in /  0.0mm 0 W/m2
02:28 41.5 °F /  5.3 °C 40.5 °F /  4.7 °C 30in /  1015.9hPa Calm     96% 0in /  0.0mm 0 W/m2
02:33 41.5 °F /  5.3 °C 40.5 °F /  4.7 °C 30in /  1015.9hPa Calm     96% 0in /  0.0mm 0 W/m2
02:38 41.5 °F /  5.3 °C 40.5 °F /  4.7 °C 30in /  1015.9hPa Calm     96% 0in /  0.0mm 0 W/m2
02:43 41.5 °F /  5.3 °C 40.5 °F /  4.7 °C 30in /  1015.9hPa Calm     96% 0in /  0.0mm 0 W/m2
02:48 41.5 °F /  5.3 °C 40.5 °F /  4.7 °C 30in /  1015.9hPa Calm     96% 0in /  0.0mm 0 W/m2
02:53 41.5 °F /  5.3 °C 40.5 °F /  4.7 °C 30in /  1015.9hPa Calm     96% 0in /  0.0mm 0 W/m2
02:58 41.5 °F /  5.3 °C 40.5 °F /  4.7 °C 30in /  1015.9hPa Calm     96% 0in /  0.0mm 0 W/m2
03:03 41.5 °F /  5.3 °C 40.5 °F /  4.7 °C 30in /  1015.9hPa Calm     96% 0in /  0.0mm 0 W/m2
03:08 41.4 °F /  5.2 °C 40.3 °F /  4.6 °C 30in /  1015.6hPa Calm     96% 0in /  0.0mm 0 W/m2
03:13 41.4 °F /  5.2 °C 40.3 °F /  4.6 °C 30in /  1015.6hPa Calm     96% 0in /  0.0mm 0 W/m2
03:18 41.4 °F /  5.2 °C 40.3 °F /  4.6 °C 30in /  1015.6hPa Calm     96% 0in /  0.0mm 0 W/m2
03:23 41.4 °F /  5.2 °C 40.3 °F /  4.6 °C 30in /  1015.6hPa Calm     96% 0in /  0.0mm 0 W/m2
03:28 41.4 °F /  5.2 °C 40.3 °F /  4.6 °C 30in /  1015.2hPa Calm     96% 0in /  0.0mm 0 W/m2
03:33 41.4 °F /  5.2 °C 40.3 °F /  4.6 °C 30in /  1015.2hPa Calm     96% 0in /  0.0mm 0 W/m2
03:38 41.4 °F /  5.2 °C 40.3 °F /  4.6 °C 30in /  1015.2hPa Calm     96% 0in /  0.0mm 0 W/m2
03:43 41.4 °F /  5.2 °C 40.3 °F /  4.6 °C 30in /  1015.2hPa Calm     96% 0in /  0.0mm 0 W/m2
03:48 41.4 °F /  5.2 °C 40.3 °F /  4.6 °C 30in /  1015.2hPa Calm     96% 0in /  0.0mm 0 W/m2
03:53 41.2 °F /  5.1 °C 40.1 °F /  4.5 °C 30in /  1015.2hPa Calm     96% 0in /  0.0mm 0 W/m2
03:58 40.8 °F /  4.9 °C 39.7 °F /  4.3 °C 30in /  1015.2hPa Calm     96% 0in /  0.0mm 0 W/m2
04:03 40.8 °F /  4.9 °C 39.7 °F /  4.3 °C 30in /  1015.2hPa Calm     96% 0in /  0.0mm 0 W/m2
04:08 40.6 °F /  4.8 °C 39.6 °F /  4.2 °C 30in /  1015.2hPa Calm     96% 0in /  0.0mm 0 W/m2
04:13 40.5 °F /  4.7 °C 39.4 °F /  4.1 °C 30in /  1015.2hPa Calm     96% 0in /  0.0mm 0 W/m2
04:18 40.5 °F /  4.7 °C 39.4 °F /  4.1 °C 30in /  1015.2hPa Calm     96% 0in /  0.0mm 0 W/m2
04:23 40.3 °F /  4.6 °C 39.2 °F /  4 °C 30in /  1015.2hPa Calm     96% 0in /  0.0mm 0 W/m2
04:28 40.3 °F /  4.6 °C 39.2 °F /  4 °C 30in /  1014.9hPa Calm     96% 0in /  0.0mm 0 W/m2
04:33 39.9 °F /  4.4 °C 38.8 °F /  3.8 °C 30in /  1014.9hPa Calm     96% 0in /  0.0mm 0 W/m2
04:38 39.9 °F /  4.4 °C 38.8 °F /  3.8 °C 30in /  1014.9hPa Calm     96% 0in /  0.0mm 0 W/m2
04:43 39.9 °F /  4.4 °C 38.8 °F /  3.8 °C 30in /  1014.9hPa Calm     96% 0in /  0.0mm 0 W/m2
04:48 39.9 °F /  4.4 °C 38.8 °F /  3.8 °C 30in /  1015.2hPa Calm     96% 0in /  0.0mm 0 W/m2
04:53 39.7 °F /  4.3 °C 38.7 °F /  3.7 °C 30in /  1015.2hPa Calm     96% 0in /  0.0mm 0 W/m2
04:58 39.7 °F /  4.3 °C 38.7 °F /  3.7 °C 30in /  1015.2hPa Calm     96% 0in /  0.0mm 0 W/m2
05:04 39.6 °F /  4.2 °C 38.5 °F /  3.6 °C 30in /  1015.2hPa Calm     96% 0in /  0.0mm 0 W/m2
05:09 39.6 °F /  4.2 °C 38.5 °F /  3.6 °C 30in /  1015.2hPa Calm     96% 0in /  0.0mm 0 W/m2
05:14 39.6 °F /  4.2 °C 38.5 °F /  3.6 °C 30in /  1015.2hPa Calm     96% 0in /  0.0mm 0 W/m2
05:19 39.6 °F /  4.2 °C 38.5 °F /  3.6 °C 30in /  1015.2hPa Calm     96% 0in /  0.0mm 0 W/m2
05:24 39.6 °F /  4.2 °C 38.8 °F /  3.8 °C 30in /  1015.2hPa Calm     97% 0in /  0.0mm 0 W/m2
05:29 39.6 °F /  4.2 °C 38.8 °F /  3.8 °C 30in /  1015.6hPa Calm     97% 0in /  0.0mm 0 W/m2
05:34 39.6 °F /  4.2 °C 38.8 °F /  3.8 °C 30in /  1015.2hPa Calm     97% 0in /  0.0mm 0 W/m2
05:39 39.4 °F /  4.1 °C 38.7 °F /  3.7 °C 30in /  1015.6hPa Calm     97% 0in /  0.0mm 0 W/m2
05:44 39.4 °F /  4.1 °C 38.7 °F /  3.7 °C 30in /  1015.6hPa Calm     97% 0in /  0.0mm 0 W/m2
05:49 39.6 °F /  4.2 °C 38.8 °F /  3.8 °C 30in /  1015.6hPa Calm     97% 0in /  0.0mm 0 W/m2
05:54 39.6 °F /  4.2 °C 38.8 °F /  3.8 °C 30in /  1015.6hPa Calm     97% 0in /  0.0mm 0 W/m2
05:59 39.4 °F /  4.1 °C 38.7 °F /  3.7 °C 30in /  1015.6hPa Calm     97% 0in /  0.0mm 0 W/m2
06:04 39.4 °F /  4.1 °C 38.7 °F /  3.7 °C 30in /  1015.2hPa Calm     97% 0in /  0.0mm 0 W/m2
06:09 39.6 °F /  4.2 °C 38.8 °F /  3.8 °C 30in /  1015.6hPa North 0.9mph /  1.4km/h 2mph /  3.2km/h 97% 0in /  0.0mm 0 W/m2
06:14 39.4 °F /  4.1 °C 38.7 °F /  3.7 °C 30in /  1015.6hPa Calm     97% 0in /  0.0mm 0 W/m2
06:19 39.4 °F /  4.1 °C 38.7 °F /  3.7 °C 30in /  1015.2hPa NW 2mph /  3.2km/h 2mph /  3.2km/h 97% 0in /  0.0mm 0 W/m2
06:24 39.2 °F /  4 °C 38.1 °F /  3.4 °C 30in /  1015.2hPa Calm     96% 0in /  0.0mm 0 W/m2
06:29 39 °F /  3.9 °C 37.9 °F /  3.3 °C 30in /  1015.6hPa Calm   2mph /  3.2km/h 96% 0in /  0.0mm 0 W/m2
06:34 39 °F /  3.9 °C 37.9 °F /  3.3 °C 30in /  1015.2hPa Calm   1mph /  1.6km/h 96% 0in /  0.0mm 0 W/m2
06:39 38.8 °F /  3.8 °C 38.1 °F /  3.4 °C 30in /  1015.2hPa Calm     97% 0in /  0.0mm 0 W/m2
06:44 38.8 °F /  3.8 °C 38.1 °F /  3.4 °C 30in /  1015.6hPa Calm   1mph /  1.6km/h 97% 0in /  0.0mm 0 W/m2
06:49 38.8 °F /  3.8 °C 38.1 °F /  3.4 °C 30in /  1015.6hPa Calm     97% 0in /  0.0mm 0 W/m2
06:54 38.7 °F /  3.7 °C 37.9 °F /  3.3 °C 30in /  1015.6hPa Calm     97% 0in /  0.0mm 0 W/m2
06:59 38.7 °F /  3.7 °C 37.6 °F /  3.1 °C 30in /  1015.6hPa Calm     96% 0in /  0.0mm 0 W/m2
07:04 38.7 °F /  3.7 °C 37.9 °F /  3.3 °C 30in /  1015.6hPa Calm     97% 0in /  0.0mm 0 W/m2
07:09 38.7 °F /  3.7 °C 37.9 °F /  3.3 °C 30in /  1015.6hPa Calm     97% 0in /  0.0mm 0 W/m2
07:14 38.7 °F /  3.7 °C 37.9 °F /  3.3 °C 30in /  1015.6hPa Calm     97% 0in /  0.0mm 0 W/m2
07:19 38.5 °F /  3.6 °C 37.8 °F /  3.2 °C 30in /  1015.6hPa Calm     97% 0in /  0.0mm 0 W/m2
07:24 38.5 °F /  3.6 °C 37.8 °F /  3.2 °C 30in /  1015.6hPa Calm     97% 0in /  0.0mm 0 W/m2
07:29 38.5 °F /  3.6 °C 37.8 °F /  3.2 °C 30in /  1015.6hPa Calm     97% 0in /  0.0mm 0 W/m2
07:34 38.5 °F /  3.6 °C 37.8 °F /  3.2 °C 30in /  1015.6hPa Calm     97% 0in /  0.0mm 0 W/m2
07:39 38.5 °F /  3.6 °C 37.8 °F /  3.2 °C 30in /  1015.9hPa Calm     97% 0in /  0.0mm 5 W/m2
07:44 38.7 °F /  3.7 °C 37.9 °F /  3.3 °C 30in /  1015.9hPa NW 0.9mph /  1.4km/h 1mph /  1.6km/h 97% 0in /  0.0mm 7 W/m2
07:49 38.7 °F /  3.7 °C 37.9 °F /  3.3 °C 30in /  1015.9hPa Calm     97% 0in /  0.0mm 9 W/m2
07:54 38.8 °F /  3.8 °C 38.1 °F /  3.4 °C 30in /  1015.9hPa Calm     97% 0in /  0.0mm 14 W/m2
07:59 38.8 °F /  3.8 °C 38.1 °F /  3.4 °C 30in /  1016.3hPa Calm   1mph /  1.6km/h 97% 0in /  0.0mm 18 W/m2
08:04 38.8 °F /  3.8 °C 38.1 °F /  3.4 °C 30in /  1016.3hPa Calm     97% 0in /  0.0mm 19 W/m2
08:09 39 °F /  3.9 °C 38.3 °F /  3.5 °C 30in /  1016.3hPa Calm   1mph /  1.6km/h 97% 0in /  0.0mm 23 W/m2
08:14 39 °F /  3.9 °C 38.3 °F /  3.5 °C 30in /  1016.3hPa Calm     97% 0in /  0.0mm 25 W/m2
08:19 39.4 °F /  4.1 °C 38.7 °F /  3.7 °C 30in /  1016.3hPa Calm     97% 0in /  0.0mm 26 W/m2
08:24 39.6 °F /  4.2 °C 38.8 °F /  3.8 °C 30in /  1015.9hPa Calm     97% 0in /  0.0mm 28 W/m2
08:29 39.6 °F /  4.2 °C 38.8 °F /  3.8 °C 30in /  1015.9hPa Calm     97% 0in /  0.0mm 32 W/m2
08:34 39.7 °F /  4.3 °C 39 °F /  3.9 °C 30in /  1015.9hPa Calm     97% 0in /  0.0mm 37 W/m2
08:39 39.9 °F /  4.4 °C 39.2 °F /  4 °C 30in /  1015.9hPa Calm     97% 0in /  0.0mm 46 W/m2
08:44 39.7 °F /  4.3 °C 39 °F /  3.9 °C 30in /  1016.3hPa Calm     97% 0in /  0.0mm 63 W/m2
08:49 39.7 °F /  4.3 °C 39 °F /  3.9 °C 30in /  1016.3hPa Calm     97% 0in /  0.0mm 79 W/m2
08:54 39.7 °F /  4.3 °C 39 °F /  3.9 °C 30in /  1016.3hPa Calm     97% 0in /  0.0mm 86 W/m2
08:59 39.7 °F /  4.3 °C 39 °F /  3.9 °C 30in /  1016.3hPa Calm     97% 0in /  0.0mm 98 W/m2
09:04 39.9 °F /  4.4 °C 39.2 °F /  4 °C 30in /  1015.9hPa Calm     97% 0in /  0.0mm 98 W/m2
09:09 40.3 °F /  4.6 °C 39.6 °F /  4.2 °C 30in /  1016.3hPa Calm     97% 0in /  0.0mm 91 W/m2
09:14 40.5 °F /  4.7 °C 39.7 °F /  4.3 °C 30in /  1016.3hPa Calm     97% 0in /  0.0mm 90 W/m2
09:19 40.8 °F /  4.9 °C 40.1 °F /  4.5 °C 30in /  1015.9hPa Calm     97% 0in /  0.0mm 109 W/m2
09:24 41.2 °F /  5.1 °C 40.5 °F /  4.7 °C 30in /  1015.9hPa Calm     97% 0in /  0.0mm 81 W/m2
09:29 41.5 °F /  5.3 °C 40.8 °F /  4.9 °C 30in /  1015.9hPa Calm     97% 0in /  0.0mm 88 W/m2
09:34 41.7 °F /  5.4 °C 41 °F /  5 °C 30in /  1015.9hPa NW 0.9mph /  1.4km/h 1mph /  1.6km/h 97% 0in /  0.0mm 105 W/m2
09:39 42.1 °F /  5.6 °C 41.4 °F /  5.2 °C 30in /  1015.9hPa Calm   1mph /  1.6km/h 97% 0in /  0.0mm 93 W/m2
09:44 42.3 °F /  5.7 °C 41.7 °F /  5.4 °C 30in /  1015.9hPa Calm     98% 0in /  0.0mm 125 W/m2
09:49 42.4 °F /  5.8 °C 41.7 °F /  5.4 °C 30in /  1015.9hPa Calm   1mph /  1.6km/h 97% 0in /  0.0mm 98 W/m2
09:54 42.6 °F /  5.9 °C 42.1 °F /  5.6 °C 30in /  1015.9hPa Calm     98% 0in /  0.0mm 111 W/m2
09:59 42.6 °F /  5.9 °C 42.1 °F /  5.6 °C 30in /  1015.9hPa Calm     98% 0in /  0.0mm 225 W/m2
10:04 43 °F /  6.1 °C 42.3 °F /  5.7 °C 30in /  1015.9hPa Calm     97% 0in /  0.0mm 199 W/m2
10:09 43.3 °F /  6.3 °C 42.8 °F /  6 °C 30in /  1015.6hPa Calm     98% 0in /  0.0mm 274 W/m2
10:14 43.9 °F /  6.6 °C 43.2 °F /  6.2 °C 30in /  1015.6hPa Calm     97% 0in /  0.0mm 230 W/m2
10:19 44.2 °F /  6.8 °C 43.5 °F /  6.4 °C 30in /  1015.6hPa Calm     97% 0in /  0.0mm 174 W/m2
10:24 44.6 °F /  7 °C 44.1 °F /  6.7 °C 30in /  1015.6hPa ENE 2mph /  3.2km/h 2mph /  3.2km/h 98% 0in /  0.0mm 214 W/m2
10:29 45.1 °F /  7.3 °C 44.6 °F /  7 °C 30in /  1015.6hPa ENE 2mph /  3.2km/h 3mph /  4.8km/h 98% 0in /  0.0mm 250 W/m2
10:34 45.7 °F /  7.6 °C 45.1 °F /  7.3 °C 30in /  1015.6hPa NE 2mph /  3.2km/h 3mph /  4.8km/h 98% 0in /  0.0mm 255 W/m2
10:39 46 °F /  7.8 °C 45.5 °F /  7.5 °C 30in /  1015.6hPa NE 0.9mph /  1.4km/h 4mph /  6.4km/h 98% 0in /  0.0mm 181 W/m2
10:44 46.4 °F /  8 °C 45.9 °F /  7.7 °C 30in /  1015.6hPa ENE 2.9mph /  4.7km/h 5mph /  8km/h 98% 0in /  0.0mm 135 W/m2
10:49 46.8 °F /  8.2 °C 46.2 °F /  7.9 °C 30in /  1015.6hPa NE 2mph /  3.2km/h 2mph /  3.2km/h 98% 0in /  0.0mm 153 W/m2
10:54 47.7 °F /  8.7 °C 47.1 °F /  8.4 °C 30in /  1015.6hPa East 2mph /  3.2km/h 6mph /  9.7km/h 98% 0in /  0.0mm 146 W/m2
10:59 48.6 °F /  9.2 °C 47.7 °F /  8.7 °C 30in /  1015.6hPa East 0.9mph /  1.4km/h 4mph /  6.4km/h 97% 0in /  0.0mm 253 W/m2
11:04 49.5 °F /  9.7 °C 48.4 °F /  9.1 °C 30in /  1015.6hPa ENE 2mph /  3.2km/h 4mph /  6.4km/h 96% 0in /  0.0mm 320 W/m2
11:09 50.5 °F /  10.3 °C 48.4 °F /  9.1 °C 30in /  1015.6hPa ESE 4mph /  6.4km/h 7mph /  11.3km/h 92% 0in /  0.0mm 301 W/m2
11:14 51.3 °F /  10.7 °C 47.8 °F /  8.8 °C 30in /  1015.6hPa East 2mph /  3.2km/h 4mph /  6.4km/h 88% 0in /  0.0mm 334 W/m2
11:19 51.6 °F /  10.9 °C 47.5 °F /  8.6 °C 30in /  1015.2hPa East 2mph /  3.2km/h 6mph /  9.7km/h 86% 0in /  0.0mm 295 W/m2
11:24 52.2 °F /  11.2 °C 47.1 °F /  8.4 °C 30in /  1015.2hPa SE 2mph /  3.2km/h 4mph /  6.4km/h 83% 0in /  0.0mm 223 W/m2
11:29 52.7 °F /  11.5 °C 47.3 °F /  8.5 °C 30in /  1015.6hPa ENE 0.9mph /  1.4km/h 4mph /  6.4km/h 82% 0in /  0.0mm 183 W/m2
11:34 53.1 °F /  11.7 °C 47.1 °F /  8.4 °C 30in /  1015.2hPa North 0.9mph /  1.4km/h 4mph /  6.4km/h 80% 0in /  0.0mm 200 W/m2
11:39 53.4 °F /  11.9 °C 47.1 °F /  8.4 °C 30in /  1015.2hPa ESE 2.9mph /  4.7km/h 6mph /  9.7km/h 79% 0in /  0.0mm 186 W/m2
11:44 53.8 °F /  12.1 °C 47.1 °F /  8.4 °C 30in /  1015.2hPa ESE 0.9mph /  1.4km/h 6mph /  9.7km/h 78% 0in /  0.0mm 186 W/m2
11:49 54.1 °F /  12.3 °C 47.1 °F /  8.4 °C 30in /  1015.2hPa ESE 2mph /  3.2km/h 7mph /  11.3km/h 77% 0in /  0.0mm 174 W/m2
11:54 54.3 °F /  12.4 °C 46.9 °F /  8.3 °C 30in /  1015.2hPa ESE 2mph /  3.2km/h 5mph /  8km/h 76% 0in /  0.0mm 272 W/m2
11:59 54.7 °F /  12.6 °C 47.3 °F /  8.5 °C 30in /  1015.2hPa East 4mph /  6.4km/h 5mph /  8km/h 76% 0in /  0.0mm 320 W/m2
12:04 54.9 °F /  12.7 °C 47.5 °F /  8.6 °C 30in /  1015.2hPa East 2mph /  3.2km/h 7mph /  11.3km/h 76% 0in /  0.0mm 264 W/m2
12:09 55.2 °F /  12.9 °C 47.5 °F /  8.6 °C 30in /  1015.2hPa East 4mph /  6.4km/h 7mph /  11.3km/h 75% 0in /  0.0mm 332 W/m2
12:14 55.6 °F /  13.1 °C 47.5 °F /  8.6 °C 30in /  1015.2hPa ESE 2.9mph /  4.7km/h 9mph /  14.5km/h 74% 0in /  0.0mm 367 W/m2
12:19 55.9 °F /  13.3 °C 47.5 °F /  8.6 °C 30in /  1014.9hPa ESE 4mph /  6.4km/h 5mph /  8km/h 73% 0in /  0.0mm 397 W/m2
12:24 56.1 °F /  13.4 °C 47.3 °F /  8.5 °C 30in /  1014.9hPa East 4mph /  6.4km/h 8mph /  12.9km/h 72% 0in /  0.0mm 371 W/m2
12:30 56.3 °F /  13.5 °C 47.5 °F /  8.6 °C 30in /  1014.9hPa East 6mph /  9.7km/h 7mph /  11.3km/h 72% 0in /  0.0mm 355 W/m2
12:35 56.5 °F /  13.6 °C 47.1 °F /  8.4 °C 30in /  1014.9hPa ESE 10.1mph /  16.3km/h 10mph /  16.1km/h 71% 0in /  0.0mm 255 W/m2
12:40 56.5 °F /  13.6 °C 46.8 °F /  8.2 °C 30in /  1014.9hPa ESE 6.9mph /  11.1km/h 9mph /  14.5km/h 70% 0in /  0.0mm 207 W/m2
12:45 56.5 °F /  13.6 °C 47.1 °F /  8.4 °C 30in /  1014.9hPa SE 8.1mph /  13km/h 9mph /  14.5km/h 71% 0in /  0.0mm 311 W/m2
12:50 56.5 °F /  13.6 °C 47.1 °F /  8.4 °C 30in /  1014.6hPa ESE 4mph /  6.4km/h 7mph /  11.3km/h 71% 0in /  0.0mm 223 W/m2
12:55 56.7 °F /  13.7 °C 47.7 °F /  8.7 °C 30in /  1014.6hPa ENE 2.9mph /  4.7km/h 3mph /  4.8km/h 72% 0in /  0.0mm 244 W/m2
13:00 57 °F /  13.9 °C 47.7 °F /  8.7 °C 30in /  1014.6hPa ENE 4mph /  6.4km/h 4mph /  6.4km/h 71% 0in /  0.0mm 325 W/m2
13:05 57.2 °F /  14 °C 47.1 °F /  8.4 °C 30in /  1014.6hPa ESE 6mph /  9.7km/h 12mph /  19.3km/h 69% 0in /  0.0mm 239 W/m2
13:10 57.4 °F /  14.1 °C 47.3 °F /  8.5 °C 30in /  1014.6hPa East 4mph /  6.4km/h 7mph /  11.3km/h 69% 0in /  0.0mm 255 W/m2
13:15 57.4 °F /  14.1 °C 47.3 °F /  8.5 °C 30in /  1014.6hPa East 2.9mph /  4.7km/h 12mph /  19.3km/h 69% 0in /  0.0mm 255 W/m2
13:20 57.6 °F /  14.2 °C 47.1 °F /  8.4 °C 30in /  1014.6hPa ESE 2mph /  3.2km/h 7mph /  11.3km/h 68% 0in /  0.0mm 167 W/m2
13:25 57.7 °F /  14.3 °C 47.3 °F /  8.5 °C 30in /  1014.6hPa ESE 6mph /  9.7km/h 10mph /  16.1km/h 68% 0in /  0.0mm 167 W/m2
13:30 57.7 °F /  14.3 °C 46.9 °F /  8.3 °C 30in /  1014.6hPa SSE 2mph /  3.2km/h 9mph /  14.5km/h 67% 0in /  0.0mm 158 W/m2
13:35 57.9 °F /  14.4 °C 46.9 °F /  8.3 °C 30in /  1014.6hPa East 4.9mph /  7.9km/h 9mph /  14.5km/h 67% 0in /  0.0mm 165 W/m2
13:40 57.9 °F /  14.4 °C 46.9 °F /  8.3 °C 30in /  1014.6hPa East 6.9mph /  11.1km/h 7mph /  11.3km/h 67% 0in /  0.0mm 149 W/m2
13:45 57.9 °F /  14.4 °C 46.9 °F /  8.3 °C 30in /  1014.6hPa NNE 0.9mph /  1.4km/h 7mph /  11.3km/h 67% 0in /  0.0mm 167 W/m2
13:50 58.3 °F /  14.6 °C 47.3 °F /  8.5 °C 30in /  1014.2hPa ENE 2.9mph /  4.7km/h 8mph /  12.9km/h 67% 0in /  0.0mm 142 W/m2
13:55 58.5 °F /  14.7 °C 47.1 °F /  8.4 °C 30in /  1014.2hPa ENE 4mph /  6.4km/h 7mph /  11.3km/h 66% 0in /  0.0mm 160 W/m2
14:00 58.6 °F /  14.8 °C 47.3 °F /  8.5 °C 30in /  1014.2hPa East 0.9mph /  1.4km/h 7mph /  11.3km/h 66% 0in /  0.0mm 151 W/m2
14:05 58.8 °F /  14.9 °C 47.1 °F /  8.4 °C 30in /  1014.2hPa East 8.9mph /  14.3km/h 9mph /  14.5km/h 65% 0in /  0.0mm 171 W/m2
14:10 59 °F /  15 °C 47.3 °F /  8.5 °C 30in /  1014.2hPa ESE 2mph /  3.2km/h 7mph /  11.3km/h 65% 0in /  0.0mm 237 W/m2
14:15 59.2 °F /  15.1 °C 47.5 °F /  8.6 °C 29.9in /  1013.9hPa ENE 2mph /  3.2km/h 8mph /  12.9km/h 65% 0in /  0.0mm 155 W/m2
14:20 59.5 °F /  15.3 °C 47.8 °F /  8.8 °C 29.9in /  1013.9hPa NE 4mph /  6.4km/h 6mph /  9.7km/h 65% 0in /  0.0mm 160 W/m2
14:25 59.5 °F /  15.3 °C 47.3 °F /  8.5 °C 29.9in /  1013.9hPa East 2.9mph /  4.7km/h 9mph /  14.5km/h 64% 0in /  0.0mm 162 W/m2
14:30 59.7 °F /  15.4 °C 47.5 °F /  8.6 °C 29.9in /  1013.9hPa ESE 4mph /  6.4km/h 10mph /  16.1km/h 64% 0in /  0.0mm 141 W/m2
14:35 59.7 °F /  15.4 °C 47.1 °F /  8.4 °C 29.9in /  1013.5hPa ESE 6.9mph /  11.1km/h 8mph /  12.9km/h 63% 0in /  0.0mm 197 W/m2
14:40 59.7 °F /  15.4 °C 47.1 °F /  8.4 °C 29.9in /  1013.5hPa ENE 4mph /  6.4km/h 8mph /  12.9km/h 63% 0in /  0.0mm 116 W/m2
14:45 59.7 °F /  15.4 °C 47.1 °F /  8.4 °C 29.9in /  1013.5hPa SSE 2mph /  3.2km/h 7mph /  11.3km/h 63% 0in /  0.0mm 100 W/m2
14:50 59.7 °F /  15.4 °C 47.1 °F /  8.4 °C 29.9in /  1013.5hPa ENE 4mph /  6.4km/h 7mph /  11.3km/h 63% 0in /  0.0mm 114 W/m2
14:55 59.7 °F /  15.4 °C 47.1 °F /  8.4 °C 29.9in /  1013.5hPa ESE 4mph /  6.4km/h 7mph /  11.3km/h 63% 0in /  0.0mm 104 W/m2
15:00 59.7 °F /  15.4 °C 47.1 °F /  8.4 °C 29.9in /  1013.5hPa East 4mph /  6.4km/h 9mph /  14.5km/h 63% 0in /  0.0mm 109 W/m2
15:05 59.7 °F /  15.4 °C 47.1 °F /  8.4 °C 29.9in /  1013.5hPa East 2.9mph /  4.7km/h 8mph /  12.9km/h 63% 0in /  0.0mm 114 W/m2
15:10 59.9 °F /  15.5 °C 47.3 °F /  8.5 °C 29.9in /  1013.5hPa ESE 2.9mph /  4.7km/h 6mph /  9.7km/h 63% 0in /  0.0mm 142 W/m2
15:15 59.9 °F /  15.5 °C 47.3 °F /  8.5 °C 29.9in /  1013.5hPa South 0.9mph /  1.4km/h 9mph /  14.5km/h 63% 0in /  0.0mm 120 W/m2
15:20 59.9 °F /  15.5 °C 47.3 °F /  8.5 °C 29.9in /  1013.2hPa ESE 2.9mph /  4.7km/h 5mph /  8km/h 63% 0in /  0.0mm 116 W/m2
15:25 59.9 °F /  15.5 °C 47.3 °F /  8.5 °C 29.9in /  1013.2hPa SE 2mph /  3.2km/h 4mph /  6.4km/h 63% 0in /  0.0mm 113 W/m2
15:30 60.1 °F /  15.6 °C 46.6 °F /  8.1 °C 29.9in /  1013.2hPa ESE 4mph /  6.4km/h 7mph /  11.3km/h 61% 0in /  0.0mm 107 W/m2
15:35 60.1 °F /  15.6 °C 46.9 °F /  8.3 °C 29.9in /  1013.2hPa ENE 4mph /  6.4km/h 4mph /  6.4km/h 62% 0in /  0.0mm 114 W/m2
15:40 60.3 °F /  15.7 °C 47.1 °F /  8.4 °C 29.9in /  1013.2hPa ESE 6mph /  9.7km/h 7mph /  11.3km/h 62% 0in /  0.0mm 132 W/m2
15:45 60.4 °F /  15.8 °C 47.3 °F /  8.5 °C 29.9in /  1013.2hPa ESE 9mph /  14.5km/h 9mph /  14.5km/h 62% 0in /  0.0mm 134 W/m2
15:50 60.4 °F /  15.8 °C 47.3 °F /  8.5 °C 29.9in /  1013.2hPa ESE 0.9mph /  1.4km/h 4mph /  6.4km/h 62% 0in /  0.0mm 146 W/m2
15:55 60.4 °F /  15.8 °C 47.3 °F /  8.5 °C 29.9in /  1013.2hPa East 0.9mph /  1.4km/h 4mph /  6.4km/h 62% 0in /  0.0mm 137 W/m2
16:00 60.4 °F /  15.8 °C 46.9 °F /  8.3 °C 29.9in /  1013.2hPa SE 2mph /  3.2km/h 6mph /  9.7km/h 61% 0in /  0.0mm 134 W/m2
16:05 60.6 °F /  15.9 °C 46.6 °F /  8.1 °C 29.9in /  1013.2hPa ENE 2mph /  3.2km/h 7mph /  11.3km/h 60% 0in /  0.0mm 116 W/m2
16:10 60.6 °F /  15.9 °C 46.6 °F /  8.1 °C 29.9in /  1013.2hPa SE 6.9mph /  11.1km/h 7mph /  11.3km/h 60% 0in /  0.0mm 109 W/m2
16:15 60.6 °F /  15.9 °C 46.6 °F /  8.1 °C 29.9in /  1013.2hPa SSE 4.9mph /  7.9km/h 9mph /  14.5km/h 60% 0in /  0.0mm 105 W/m2
16:20 60.4 °F /  15.8 °C 46.9 °F /  8.3 °C 29.9in /  1013.2hPa NE 2.9mph /  4.7km/h 7mph /  11.3km/h 61% 0in /  0.0mm 107 W/m2
16:25 60.6 °F /  15.9 °C 46.6 °F /  8.1 °C 29.9in /  1013.2hPa ENE 2mph /  3.2km/h 8mph /  12.9km/h 60% 0in /  0.0mm 155 W/m2
16:30 60.6 °F /  15.9 °C 47.1 °F /  8.4 °C 29.9in /  1013.2hPa East 0.9mph /  1.4km/h 3mph /  4.8km/h 61% 0in /  0.0mm 90 W/m2
16:35 60.4 °F /  15.8 °C 47.3 °F /  8.5 °C 29.9in /  1013.2hPa ESE 2mph /  3.2km/h 4mph /  6.4km/h 62% 0in /  0.0mm 76 W/m2
16:40 60.3 °F /  15.7 °C 48 °F /  8.9 °C 29.9in /  1013.2hPa ESE 0.9mph /  1.4km/h 2mph /  3.2km/h 64% 0in /  0.0mm 67 W/m2
16:45 59.9 °F /  15.5 °C 46.8 °F /  8.2 °C 29.9in /  1013.2hPa East 6mph /  9.7km/h 9mph /  14.5km/h 62% 0in /  0.0mm 65 W/m2
16:50 60.1 °F /  15.6 °C 46.6 °F /  8.1 °C 29.9in /  1013.2hPa ENE 2.9mph /  4.7km/h 7mph /  11.3km/h 61% 0in /  0.0mm 60 W/m2
16:55 60.3 °F /  15.7 °C 45.9 °F /  7.7 °C 29.9in /  1013.2hPa ESE 4mph /  6.4km/h 9mph /  14.5km/h 59% 0in /  0.0mm 54 W/m2
17:01 60.3 °F /  15.7 °C 46.4 °F /  8 °C 29.9in /  1013.2hPa ESE 0.9mph /  1.4km/h 3mph /  4.8km/h 60% 0in /  0.0mm 46 W/m2
17:06 59.7 °F /  15.4 °C 47.1 °F /  8.4 °C 29.9in /  1013.2hPa Calm   5mph /  8km/h 63% 0in /  0.0mm 46 W/m2
17:11 59.2 °F /  15.1 °C 47.5 °F /  8.6 °C 29.9in /  1013.2hPa Calm     65% 0in /  0.0mm 42 W/m2
17:16 58.5 °F /  14.7 °C 47.1 °F /  8.4 °C 29.9in /  1013.2hPa Calm     66% 0in /  0.0mm 33 W/m2
17:21 57.6 °F /  14.2 °C 47.1 °F /  8.4 °C 29.9in /  1013.2hPa Calm     68% 0in /  0.0mm 32 W/m2
17:26 56.8 °F /  13.8 °C 46.8 °F /  8.2 °C 29.9in /  1013.2hPa Calm   2mph /  3.2km/h 69% 0in /  0.0mm 26 W/m2
17:31 56.3 °F /  13.5 °C 46.2 °F /  7.9 °C 29.9in /  1012.9hPa Calm     69% 0in /  0.0mm 23 W/m2
17:36 55.8 °F /  13.2 °C 46.6 °F /  8.1 °C 29.9in /  1012.9hPa Calm   2mph /  3.2km/h 71% 0in /  0.0mm 19 W/m2
17:41 55.2 °F /  12.9 °C 46.4 °F /  8 °C 29.9in /  1012.9hPa Calm     72% 0in /  0.0mm 16 W/m2
17:46 54.9 °F /  12.7 °C 46 °F /  7.8 °C 29.9in /  1012.9hPa Calm     72% 0in /  0.0mm 14 W/m2
17:51 54.3 °F /  12.4 °C 45.9 °F /  7.7 °C 29.9in /  1013.2hPa Calm     73% 0in /  0.0mm 11 W/m2
17:56 53.8 °F /  12.1 °C 45.7 °F /  7.6 °C 29.9in /  1013.2hPa SE 0.9mph /  1.4km/h 2mph /  3.2km/h 74% 0in /  0.0mm 5 W/m2
18:01 53.2 °F /  11.8 °C 45.1 °F /  7.3 °C 29.9in /  1013.2hPa SE 0.9mph /  1.4km/h 1mph /  1.6km/h 74% 0in /  0.0mm 0 W/m2
18:06 52.7 °F /  11.5 °C 45 °F /  7.2 °C 29.9in /  1013.2hPa SE 2mph /  3.2km/h 2mph /  3.2km/h 75% 0in /  0.0mm 0 W/m2
18:11 52.2 °F /  11.2 °C 44.8 °F /  7.1 °C 29.9in /  1013.2hPa Calm   2mph /  3.2km/h 76% 0in /  0.0mm 0 W/m2
18:16 51.8 °F /  11 °C 44.8 °F /  7.1 °C 29.9in /  1013.2hPa Calm     77% 0in /  0.0mm 0 W/m2
18:21 51.4 °F /  10.8 °C 44.8 °F /  7.1 °C 29.9in /  1013.2hPa Calm   2mph /  3.2km/h 78% 0in /  0.0mm 0 W/m2
18:26 51.1 °F /  10.6 °C 44.4 °F /  6.9 °C 29.9in /  1013.2hPa Calm     78% 0in /  0.0mm 0 W/m2
18:31 50.5 °F /  10.3 °C 44.2 °F /  6.8 °C 29.9in /  1013.2hPa Calm     79% 0in /  0.0mm 0 W/m2
18:36 50.4 °F /  10.2 °C 44.4 °F /  6.9 °C 29.9in /  1013.2hPa Calm     80% 0in /  0.0mm 0 W/m2
18:41 49.8 °F /  9.9 °C 43.9 °F /  6.6 °C 29.9in /  1013.2hPa Calm   1mph /  1.6km/h 80% 0in /  0.0mm 0 W/m2
18:46 49.6 °F /  9.8 °C 44.1 °F /  6.7 °C 29.9in /  1013.2hPa SE 0.9mph /  1.4km/h 2mph /  3.2km/h 81% 0in /  0.0mm 0 W/m2
18:51 49.1 °F /  9.5 °C 43.5 °F /  6.4 °C 29.9in /  1013.2hPa Calm   2mph /  3.2km/h 81% 0in /  0.0mm 0 W/m2
18:56 48.7 °F /  9.3 °C 43.5 °F /  6.4 °C 29.9in /  1013.2hPa Calm   1mph /  1.6km/h 82% 0in /  0.0mm 0 W/m2
19:01 48.4 °F /  9.1 °C 43.5 °F /  6.4 °C 29.9in /  1013.2hPa Calm     83% 0in /  0.0mm 0 W/m2
19:06 48.2 °F /  9 °C 43.5 °F /  6.4 °C 29.9in /  1013.5hPa Calm     84% 0in /  0.0mm 0 W/m2
19:11 48 °F /  8.9 °C 43.3 °F /  6.3 °C 29.9in /  1013.5hPa Calm     84% 0in /  0.0mm 0 W/m2
19:16 47.8 °F /  8.8 °C 43.2 °F /  6.2 °C 29.9in /  1013.5hPa Calm     84% 0in /  0.0mm 0 W/m2
19:21 47.7 °F /  8.7 °C 43.3 °F /  6.3 °C 29.9in /  1013.2hPa SE 0.9mph /  1.4km/h 1mph /  1.6km/h 85% 0in /  0.0mm 0 W/m2
19:26 47.5 °F /  8.6 °C 43.2 °F /  6.2 °C 29.9in /  1013.2hPa Calm     85% 0in /  0.0mm 0 W/m2
19:31 47.3 °F /  8.5 °C 43 °F /  6.1 °C 29.9in /  1013.5hPa Calm     85% 0in /  0.0mm 0 W/m2
19:36 47.1 °F /  8.4 °C 43.2 °F /  6.2 °C 29.9in /  1013.5hPa Calm   2mph /  3.2km/h 86% 0in /  0.0mm 0 W/m2
19:41 47.1 °F /  8.4 °C 43.2 °F /  6.2 °C 29.9in /  1013.5hPa Calm     86% 0in /  0.0mm 0 W/m2
19:46 47.1 °F /  8.4 °C 43.2 °F /  6.2 °C 29.9in /  1013.2hPa Calm   1mph /  1.6km/h 86% 0in /  0.0mm 0 W/m2
19:51 47.1 °F /  8.4 °C 43.2 °F /  6.2 °C 29.9in /  1013.5hPa Calm     86% 0in /  0.0mm 0 W/m2
19:56 46.9 °F /  8.3 °C 43 °F /  6.1 °C 29.9in /  1013.5hPa Calm     86% 0in /  0.0mm 0 W/m2
20:01 46.8 °F /  8.2 °C 42.8 °F /  6 °C 29.9in /  1013.5hPa Calm     86% 0in /  0.0mm 0 W/m2
20:06 46.6 °F /  8.1 °C 42.6 °F /  5.9 °C 29.9in /  1013.5hPa Calm     86% 0in /  0.0mm 0 W/m2
20:11 46.4 °F /  8 °C 42.4 °F /  5.8 °C 29.9in /  1013.5hPa Calm     86% 0in /  0.0mm 0 W/m2
20:16 46.2 °F /  7.9 °C 42.6 °F /  5.9 °C 29.9in /  1013.5hPa Calm     87% 0in /  0.0mm 0 W/m2
20:21 46.2 °F /  7.9 °C 42.6 °F /  5.9 °C 29.9in /  1013.5hPa Calm     87% 0in /  0.0mm 0 W/m2
20:26 46.2 °F /  7.9 °C 42.6 °F /  5.9 °C 29.9in /  1013.5hPa Calm     87% 0in /  0.0mm 0 W/m2
20:31 46.2 °F /  7.9 °C 42.6 °F /  5.9 °C 29.9in /  1013.5hPa Calm     87% 0in /  0.0mm 0 W/m2
20:36 46 °F /  7.8 °C 42.4 °F /  5.8 °C 29.9in /  1013.5hPa Calm     87% 0in /  0.0mm 0 W/m2
20:41 45.9 °F /  7.7 °C 42.3 °F /  5.7 °C 29.9in /  1013.5hPa Calm     87% 0in /  0.0mm 0 W/m2
20:46 45.7 °F /  7.6 °C 42.1 °F /  5.6 °C 29.9in /  1013.5hPa Calm     87% 0in /  0.0mm 0 W/m2
20:51 45.5 °F /  7.5 °C 42.1 °F /  5.6 °C 29.9in /  1013.5hPa Calm     88% 0in /  0.0mm 0 W/m2
20:56 45.3 °F /  7.4 °C 41.9 °F /  5.5 °C 29.9in /  1013.5hPa Calm     88% 0in /  0.0mm 0 W/m2
21:01 45.3 °F /  7.4 °C 41.9 °F /  5.5 °C 29.9in /  1013.5hPa Calm     88% 0in /  0.0mm 0 W/m2
21:07 45.3 °F /  7.4 °C 41.9 °F /  5.5 °C 29.9in /  1013.5hPa Calm     88% 0in /  0.0mm 0 W/m2
21:12 45.1 °F /  7.3 °C 42.1 °F /  5.6 °C 29.9in /  1013.5hPa Calm     89% 0in /  0.0mm 0 W/m2
21:17 45.1 °F /  7.3 °C 42.1 °F /  5.6 °C 29.9in /  1013.5hPa Calm     89% 0in /  0.0mm 0 W/m2
21:22 45 °F /  7.2 °C 41.9 °F /  5.5 °C 29.9in /  1013.9hPa Calm     89% 0in /  0.0mm 0 W/m2
21:27 44.8 °F /  7.1 °C 41.7 °F /  5.4 °C 29.9in /  1013.9hPa Calm     89% 0in /  0.0mm 0 W/m2
21:32 44.8 °F /  7.1 °C 41.7 °F /  5.4 °C 29.9in /  1013.9hPa Calm     89% 0in /  0.0mm 0 W/m2
21:37 44.6 °F /  7 °C 41.5 °F /  5.3 °C 29.9in /  1013.9hPa Calm     89% 0in /  0.0mm 0 W/m2
21:46 44.2 °F /  6.8 °C 41.2 °F /  5.1 °C 29.9in /  1013.9hPa Calm     89% 0in /  0.0mm 0 W/m2
21:51 44.2 °F /  6.8 °C 41.5 °F /  5.3 °C 29.9in /  1013.9hPa Calm     90% 0in /  0.0mm 0 W/m2
21:56 44.4 °F /  6.9 °C 41.7 °F /  5.4 °C 29.9in /  1013.9hPa Calm     90% 0in /  0.0mm 0 W/m2
22:01 44.2 °F /  6.8 °C 41.5 °F /  5.3 °C 30in /  1014.2hPa Calm     90% 0in /  0.0mm 0 W/m2
22:20 43.5 °F /  6.4 °C 40.8 °F /  4.9 °C 30in /  1014.2hPa Calm     90% 0in /  0.0mm 0 W/m2
22:26 43.3 °F /  6.3 °C 40.8 °F /  4.9 °C 29.9in /  1013.9hPa Calm     91% 0in /  0.0mm 0 W/m2
22:31 43.5 °F /  6.4 °C 41 °F /  5 °C 30in /  1014.2hPa Calm     91% 0in /  0.0mm 0 W/m2
22:36 43.5 °F /  6.4 °C 41 °F /  5 °C 29.9in /  1013.9hPa Calm     91% 0in /  0.0mm 0 W/m2
22:41 43.3 °F /  6.3 °C 40.8 °F /  4.9 °C 30in /  1014.2hPa Calm     91% 0in /  0.0mm 0 W/m2
22:46 43.2 °F /  6.2 °C 40.6 °F /  4.8 °C 30in /  1014.2hPa Calm     91% 0in /  0.0mm 0 W/m2
22:51 43 °F /  6.1 °C 40.5 °F /  4.7 °C 30in /  1014.2hPa Calm     91% 0in /  0.0mm 0 W/m2
22:56 42.6 °F /  5.9 °C 40.1 °F /  4.5 °C 30in /  1014.2hPa Calm     91% 0in /  0.0mm 0 W/m2
23:15 42.3 °F /  5.7 °C 40.1 °F /  4.5 °C 30in /  1014.2hPa Calm     92% 0in /  0.0mm 0 W/m2
23:20 42.3 °F /  5.7 °C 40.1 °F /  4.5 °C 30in /  1014.2hPa Calm     92% 0in /  0.0mm 0 W/m2
23:25 42.1 °F /  5.6 °C 39.9 °F /  4.4 °C 30in /  1014.2hPa Calm     92% 0in /  0.0mm 0 W/m2
23:30 41.7 °F /  5.4 °C 39.6 °F /  4.2 °C 30in /  1014.2hPa Calm     92% 0in /  0.0mm 0 W/m2
23:36 41.7 °F /  5.4 °C 39.6 °F /  4.2 °C 30in /  1014.2hPa Calm     92% 0in /  0.0mm 0 W/m2
23:41 41.5 °F /  5.3 °C 39.4 °F /  4.1 °C 30in /  1014.2hPa Calm     92% 0in /  0.0mm 0 W/m2
23:46 41.5 °F /  5.3 °C 39.4 °F /  4.1 °C 30in /  1014.6hPa Calm     92% 0in /  0.0mm 0 W/m2
23:51 41.4 °F /  5.2 °C 39.6 °F /  4.2 °C 30in /  1014.6hPa Calm     93% 0in /  0.0mm 0 W/m2
23:56 41.5 °F /  5.3 °C 39.7 °F /  4.3 °C 30in /  1014.6hPa Calm     93% 0in /  0.0mm 0 W/m2
Juneau County Weather
Compliments of Weather Underground - 4 mb